Time;durP1;ratioP1;P1;durP2;ratioP2;P2;SDS_P1;SDS_P2;PMS_P1;PMS_P2;Temp;Humidity;BMP_temperature;BMP_pressure;BME280_temperature;BME280_humidity;BME280_pressure;Samples;Min_cycle;Max_cycle;Signal;HPM_P1;HPM_P2
2022/04/14 00:02:15;;;;;;;6.80;1.55;;;13.90;72.10;;;;;;5048921;28;20134;-72
2022/04/14 00:04:42;;;;;;;4.22;1.67;;;13.80;72.20;;;;;;5067937;28;20071;-72
2022/04/14 00:07:09;;;;;;;4.25;1.45;;;13.80;72.30;;;;;;5068399;28;20051;-71
2022/04/14 00:09:36;;;;;;;4.28;1.85;;;13.80;72.40;;;;;;5037519;28;20401;-72
2022/04/14 00:12:04;;;;;;;4.43;1.75;;;13.70;72.50;;;;;;5066260;28;20114;-71
2022/04/14 00:14:34;;;;;;;5.57;1.88;;;13.70;72.70;;;;;;5067291;28;20127;-72
2022/04/14 00:17:00;;;;;;;5.15;2.03;;;13.70;72.90;;;;;;5067996;28;20068;-72
2022/04/14 00:19:30;;;;;;;3.95;1.90;;;13.70;73.10;;;;;;5057191;28;20060;-72
2022/04/14 00:21:57;;;;;;;4.10;1.77;;;13.70;73.00;;;;;;5054311;28;20045;-71
2022/04/14 00:24:24;;;;;;;4.38;2.00;;;13.70;73.00;;;;;;5067403;28;20044;-72
2022/04/14 00:26:51;;;;;;;5.50;2.40;;;13.60;73.20;;;;;;5069045;28;20052;-73
2022/04/14 00:29:18;;;;;;;6.18;2.38;;;13.60;73.30;;;;;;5065127;28;20048;-74
2022/04/14 00:31:47;;;;;;;8.15;2.10;;;13.60;73.30;;;;;;5069445;28;20041;-72
2022/04/14 00:34:14;;;;;;;9.48;2.22;;;13.60;73.40;;;;;;5068774;28;20045;-73
2022/04/14 00:36:40;;;;;;;6.55;1.95;;;13.60;73.50;;;;;;5069239;28;20076;-72
2022/04/14 00:39:09;;;;;;;3.45;1.83;;;13.50;73.50;;;;;;5068344;28;20041;-73
2022/04/14 00:41:37;;;;;;;4.45;1.80;;;13.60;73.60;;;;;;5068777;28;20494;-72
2022/04/14 00:44:05;;;;;;;7.05;3.03;;;13.60;73.50;;;;;;5068127;28;20529;-72
2022/04/14 00:46:32;;;;;;;6.10;2.00;;;13.50;73.60;;;;;;5050892;28;20679;-73
2022/04/14 00:49:01;;;;;;;6.20;3.30;;;13.40;73.80;;;;;;5066394;28;20052;-73
2022/04/14 00:51:28;;;;;;;5.53;2.28;;;13.40;73.90;;;;;;5068781;28;20071;-73
2022/04/14 00:53:55;;;;;;;7.78;2.70;;;13.40;74.00;;;;;;5067721;28;20047;-73
2022/04/14 00:56:22;;;;;;;7.90;2.60;;;13.40;74.00;;;;;;5064810;28;20123;-72
2022/04/14 00:58:49;;;;;;;5.38;1.92;;;13.30;74.00;;;;;;5067775;28;20049;-73
2022/04/14 01:01:17;;;;;;;4.82;2.13;;;13.30;74.00;;;;;;5065546;28;20044;-72
2022/04/14 01:03:46;;;;;;;5.03;2.03;;;13.30;73.90;;;;;;5066540;28;20045;-73
2022/04/14 01:06:16;;;;;;;4.00;1.83;;;13.30;73.90;;;;;;5069344;28;20041;-74
2022/04/14 01:09:16;;;;;;;7.40;2.20;;;13.20;74.00;;;;;;5068593;28;20044;-72
2022/04/14 01:11:31;;;;;;;7.15;2.50;;;13.20;74.10;;;;;;5050855;28;20431;-72
2022/04/14 01:13:58;;;;;;;4.35;1.52;;;13.20;74.00;;;;;;5063668;28;20043;-73
2022/04/14 01:16:26;;;;;;;5.32;1.90;;;13.10;74.20;;;;;;5059485;28;20387;-72
2022/04/14 01:18:53;;;;;;;3.90;1.63;;;13.10;74.10;;;;;;5067978;28;20051;-72
2022/04/14 01:21:22;;;;;;;4.07;1.98;;;13.10;74.30;;;;;;5067565;28;20154;-72
2022/04/14 01:23:51;;;;;;;5.07;2.00;;;13.10;74.20;;;;;;5067610;28;20047;-72
2022/04/14 01:26:19;;;;;;;6.32;2.20;;;13.10;74.20;;;;;;5069532;28;20052;-71
2022/04/14 01:28:46;;;;;;;8.27;2.15;;;13.10;74.30;;;;;;5067286;28;20037;-72
2022/04/14 01:31:13;;;;;;;5.93;2.03;;;13.00;74.30;;;;;;5064159;28;20745;-71
2022/04/14 01:33:40;;;;;;;3.95;1.38;;;13.00;74.30;;;;;;5067193;28;20040;-74
2022/04/14 01:36:07;;;;;;;3.22;1.40;;;12.90;74.30;;;;;;5067695;28;20048;-73
2022/04/14 01:38:34;;;;;;;5.28;1.98;;;12.90;74.40;;;;;;5067373;28;20048;-70
2022/04/14 01:41:04;;;;;;;3.25;1.75;;;12.90;74.40;;;;;;5066259;28;20139;-72
2022/04/14 01:43:30;;;;;;;5.10;1.70;;;12.90;74.40;;;;;;5069282;28;20041;-72
2022/04/14 01:45:57;;;;;;;4.13;1.60;;;12.80;74.40;;;;;;5070260;28;20963;-71
2022/04/14 01:48:25;;;;;;;4.38;1.50;;;12.80;74.50;;;;;;5069434;28;20041;-75
2022/04/14 01:50:52;;;;;;;5.65;1.60;;;12.80;74.50;;;;;;5071396;28;20067;-73
2022/04/14 01:53:19;;;;;;;5.07;1.80;;;12.70;74.60;;;;;;5071876;28;20049;-72
2022/04/14 01:55:46;;;;;;;3.88;1.80;;;12.80;74.60;;;;;;5072076;28;20048;-72
2022/04/14 01:58:14;;;;;;;5.07;1.77;;;12.70;74.60;;;;;;5069805;28;20067;-72
2022/04/14 02:00:41;;;;;;;4.55;1.83;;;12.70;74.60;;;;;;5066960;28;20044;-72
2022/04/14 02:03:08;;;;;;;3.90;2.00;;;12.70;74.70;;;;;;5070930;28;20049;-73
2022/04/14 02:05:35;;;;;;;3.72;1.98;;;12.70;74.70;;;;;;5064676;28;20040;-71
2022/04/14 02:08:02;;;;;;;6.93;1.70;;;12.70;74.80;;;;;;5061612;28;20044;-72
2022/04/14 02:10:29;;;;;;;5.07;1.65;;;12.70;74.80;;;;;;5059143;28;20055;-73
2022/04/14 02:12:58;;;;;;;6.18;1.58;;;12.60;74.90;;;;;;5069007;28;20119;-73
2022/04/14 02:15:26;;;;;;;4.63;1.80;;;12.70;75.00;;;;;;5071016;28;20045;-72
2022/04/14 02:17:53;;;;;;;5.60;1.90;;;12.60;75.10;;;;;;5069045;28;20041;-73
2022/04/14 02:20:20;;;;;;;5.57;1.83;;;12.60;75.20;;;;;;5066346;28;20047;-71
2022/04/14 02:22:47;;;;;;;4.47;2.38;;;12.60;75.10;;;;;;5072143;28;20044;-71
2022/04/14 02:25:14;;;;;;;5.50;1.92;;;12.60;75.30;;;;;;5071092;28;20043;-72
2022/04/14 02:27:41;;;;;;;10.43;2.08;;;12.60;75.20;;;;;;5052529;28;20135;-72
2022/04/14 02:30:09;;;;;;;4.22;2.15;;;12.60;75.20;;;;;;5072559;28;20063;-72
2022/04/14 02:32:37;;;;;;;5.32;2.03;;;12.60;75.20;;;;;;5070389;28;20482;-70
2022/04/14 02:35:05;;;;;;;4.38;1.73;;;12.60;75.40;;;;;;5072815;28;20056;-74
2022/04/14 02:37:32;;;;;;;4.75;1.65;;;12.50;75.40;;;;;;5069592;28;20150;-74
2022/04/14 02:39:59;;;;;;;6.53;1.90;;;12.50;75.40;;;;;;5071257;28;20402;-72
2022/04/14 02:42:27;;;;;;;8.35;2.50;;;12.50;75.30;;;;;;5070363;28;20119;-73
2022/04/14 02:44:53;;;;;;;5.03;1.67;;;12.50;75.30;;;;;;5069454;28;20121;-72
2022/04/14 02:47:20;;;;;;;6.22;1.80;;;12.50;75.30;;;;;;5071189;28;20044;-74
2022/04/14 02:49:49;;;;;;;4.95;2.00;;;12.40;75.40;;;;;;5071007;28;20040;-73
2022/04/14 02:52:16;;;;;;;4.43;1.48;;;12.40;75.50;;;;;;5070277;28;20102;-72
2022/04/14 02:54:43;;;;;;;4.78;1.92;;;12.40;75.50;;;;;;5068493;28;20111;-73
2022/04/14 02:57:10;;;;;;;3.45;1.60;;;12.40;75.50;;;;;;5071713;28;20052;-72
2022/04/14 02:59:37;;;;;;;4.30;1.80;;;12.40;75.60;;;;;;5070789;28;20071;-73
2022/04/14 03:02:05;;;;;;;4.32;1.77;;;12.30;75.50;;;;;;5050157;28;20094;-73
2022/04/14 03:04:32;;;;;;;4.65;1.80;;;12.30;75.60;;;;;;5070511;28;20075;-73
2022/04/14 03:07:00;;;;;;;5.07;2.20;;;12.30;75.70;;;;;;5069766;28;20050;-73
2022/04/14 03:09:27;;;;;;;3.55;1.88;;;12.30;75.70;;;;;;5071411;28;20056;-71
2022/04/14 03:11:54;;;;;;;3.88;1.65;;;12.30;75.70;;;;;;5069540;28;20047;-70
2022/04/14 03:14:21;;;;;;;9.32;1.60;;;12.30;75.70;;;;;;5069799;28;20033;-73
2022/04/14 03:16:48;;;;;;;5.20;1.52;;;12.20;75.80;;;;;;5048391;28;20421;-74
2022/04/14 03:19:15;;;;;;;3.08;1.75;;;12.20;75.80;;;;;;5069253;28;20044;-73
2022/04/14 03:21:42;;;;;;;3.95;1.58;;;12.20;75.90;;;;;;5069564;28;20040;-73
2022/04/14 03:24:10;;;;;;;2.92;1.60;;;12.20;76.00;;;;;;5069527;28;20036;-71
2022/04/14 03:26:37;;;;;;;5.22;1.77;;;12.20;75.90;;;;;;5063303;28;20045;-71
2022/04/14 03:29:04;;;;;;;7.68;1.95;;;12.20;75.90;;;;;;5056900;28;20041;-73
2022/04/14 03:31:31;;;;;;;6.85;1.70;;;12.20;76.00;;;;;;5057665;28;20063;-71
2022/04/14 03:33:58;;;;;;;5.22;2.60;;;12.20;76.00;;;;;;5063696;28;20142;-72
2022/04/14 03:36:25;;;;;;;4.55;2.42;;;12.20;76.10;;;;;;5059668;28;20513;-71
2022/04/14 03:38:52;;;;;;;6.95;2.40;;;12.10;76.20;;;;;;5059899;28;20060;-73
2022/04/14 03:41:21;;;;;;;5.00;2.40;;;12.10;76.30;;;;;;5057937;28;20138;-72
2022/04/14 03:43:48;;;;;;;7.55;2.40;;;12.10;76.40;;;;;;5062037;28;20399;-74
2022/04/14 03:46:15;;;;;;;6.53;2.45;;;12.10;76.40;;;;;;5054764;28;20044;-74
2022/04/14 03:48:42;;;;;;;6.88;1.95;;;12.10;76.50;;;;;;5063378;28;20044;-74
2022/04/14 03:51:10;;;;;;;4.20;1.95;;;12.00;76.50;;;;;;5060078;28;20040;-72
2022/04/14 03:53:37;;;;;;;7.03;2.60;;;11.90;76.60;;;;;;5058644;28;20494;-74
2022/04/14 03:56:04;;;;;;;5.43;1.83;;;11.90;76.60;;;;;;5059498;28;20052;-72
2022/04/14 03:58:33;;;;;;;7.35;2.15;;;11.90;76.60;;;;;;5060446;28;20405;-74
2022/04/14 04:01:00;;;;;;;5.72;2.22;;;12.00;76.60;;;;;;5057331;28;22468;-73
2022/04/14 04:03:27;;;;;;;5.35;2.30;;;11.90;76.70;;;;;;5060450;28;20072;-75
2022/04/14 04:05:54;;;;;;;5.43;2.40;;;11.90;76.70;;;;;;5059060;28;20049;-74
2022/04/14 04:08:21;;;;;;;5.22;2.50;;;11.90;76.80;;;;;;5060964;28;20128;-71
2022/04/14 04:10:48;;;;;;;8.02;2.28;;;11.90;76.80;;;;;;5052870;28;20825;-71
2022/04/14 04:13:16;;;;;;;8.02;2.55;;;11.90;76.90;;;;;;5062412;28;20040;-73
2022/04/14 04:15:44;;;;;;;6.38;2.50;;;11.90;76.70;;;;;;5060577;28;20044;-74
2022/04/14 04:18:11;;;;;;;4.30;2.05;;;11.90;76.90;;;;;;5062042;28;20063;-73
2022/04/14 04:20:39;;;;;;;5.55;1.95;;;11.90;76.90;;;;;;5060314;28;20037;-74
2022/04/14 04:23:06;;;;;;;6.85;2.25;;;11.90;76.90;;;;;;5058689;28;20086;-72
2022/04/14 04:25:44;;;;;;;;;;;;;;;;;;;;;
2022/04/14 04:28:12;;;;;;;9.20;2.35;;;11.80;77.00;;;;;;5054618;28;20048;-63
2022/04/14 04:30:40;;;;;;;4.90;1.95;;;11.80;76.90;;;;;;5060300;28;20044;-64
2022/04/14 04:33:08;;;;;;;4.53;2.25;;;11.80;77.10;;;;;;5059793;28;20048;-64
2022/04/14 04:35:35;;;;;;;5.70;2.38;;;11.70;77.20;;;;;;5058466;28;20040;-70
2022/04/14 04:38:03;;;;;;;7.05;3.33;;;11.80;77.20;;;;;;5060454;28;20079;-69
2022/04/14 04:40:30;;;;;;;4.95;2.05;;;11.80;77.20;;;;;;5041045;28;20074;-70
2022/04/14 04:42:57;;;;;;;5.15;2.38;;;11.80;77.30;;;;;;5062989;28;20466;-68
2022/04/14 04:45:24;;;;;;;5.18;2.95;;;11.70;77.40;;;;;;5057817;28;20713;-70
2022/04/14 04:47:51;;;;;;;7.05;2.47;;;11.70;77.50;;;;;;5059475;28;20160;-70
2022/04/14 04:50:19;;;;;;;5.68;2.25;;;11.80;77.50;;;;;;5059894;28;20511;-70
2022/04/14 04:52:46;;;;;;;5.70;2.53;;;11.80;77.60;;;;;;5062088;28;20095;-69
2022/04/14 04:55:14;;;;;;;5.38;2.45;;;11.80;77.70;;;;;;5059129;28;20091;-69
2022/04/14 04:57:41;;;;;;;4.93;2.22;;;11.80;77.70;;;;;;5059365;28;20052;-70
2022/04/14 05:00:10;;;;;;;7.72;2.85;;;11.90;77.80;;;;;;5051655;28;20541;-69
2022/04/14 05:02:37;;;;;;;8.27;2.53;;;11.90;77.90;;;;;;5059761;28;20040;-69
2022/04/14 05:05:05;;;;;;;8.40;2.78;;;11.90;78.00;;;;;;5057284;28;20501;-70
2022/04/14 05:07:34;;;;;;;6.75;2.58;;;11.90;78.40;;;;;;5056445;28;20043;-68
2022/04/14 05:10:01;;;;;;;5.57;2.30;;;11.90;78.40;;;;;;5057095;28;20144;-69
2022/04/14 05:12:29;;;;;;;9.82;2.67;;;12.00;78.40;;;;;;5058192;28;20056;-69
2022/04/14 05:14:57;;;;;;;9.15;2.38;;;12.00;78.30;;;;;;5056965;28;20115;-70
2022/04/14 05:17:24;;;;;;;8.18;2.50;;;12.00;78.30;;;;;;5058142;28;20512;-70
2022/04/14 05:19:51;;;;;;;6.28;2.50;;;12.10;78.30;;;;;;5061105;28;20521;-70
2022/04/14 05:22:18;;;;;;;8.88;4.15;;;12.10;78.30;;;;;;5062587;28;20048;-71
2022/04/14 05:24:46;;;;;;;5.82;2.25;;;12.10;78.30;;;;;;5062193;28;20040;-70
2022/04/14 05:27:13;;;;;;;7.22;2.85;;;12.20;78.20;;;;;;5059421;28;20120;-70
2022/04/14 05:29:40;;;;;;;4.95;3.10;;;12.20;78.20;;;;;;5063829;28;20043;-70
2022/04/14 05:32:08;;;;;;;6.88;2.80;;;12.20;78.20;;;;;;5063924;28;20040;-69
2022/04/14 05:34:35;;;;;;;5.15;2.38;;;12.20;78.20;;;;;;5063999;28;20049;-69
2022/04/14 05:37:05;;;;;;;6.80;2.60;;;12.30;78.20;;;;;;5060510;28;20063;-69
2022/04/14 05:39:32;;;;;;;7.75;3.00;;;12.30;78.30;;;;;;5063333;28;20090;-70
2022/04/14 05:42:00;;;;;;;8.73;2.42;;;12.30;78.40;;;;;;5061520;28;20131;-71
2022/04/14 05:44:28;;;;;;;10.20;2.95;;;12.40;78.40;;;;;;5042512;28;20036;-70
2022/04/14 05:46:55;;;;;;;5.38;2.70;;;12.40;78.70;;;;;;5059238;28;20040;-70
2022/04/14 05:49:23;;;;;;;8.35;3.10;;;12.50;78.80;;;;;;5062505;28;20143;-70
2022/04/14 05:51:50;;;;;;;10.95;2.50;;;12.50;79.00;;;;;;5064517;28;20048;-71
2022/04/14 05:54:17;;;;;;;10.00;2.80;;;12.60;79.00;;;;;;5061822;28;20133;-69
2022/04/14 05:56:44;;;;;;;8.07;3.33;;;12.60;79.00;;;;;;5067498;28;20109;-70
2022/04/14 05:59:16;;;;;;;4.28;2.65;;;12.60;79.10;;;;;;5072278;28;20090;-70
2022/04/14 06:01:44;;;;;;;7.22;3.38;;;12.70;79.20;;;;;;5061641;28;20056;-70
2022/04/14 06:04:11;;;;;;;6.50;2.97;;;12.70;79.30;;;;;;5061331;28;20041;-71
2022/04/14 06:06:38;;;;;;;8.73;3.97;;;12.70;79.30;;;;;;5063543;28;20411;-71
2022/04/14 06:09:05;;;;;;;8.20;3.75;;;12.80;79.60;;;;;;5063568;28;20044;-69
2022/04/14 06:11:33;;;;;;;7.00;3.45;;;12.90;79.40;;;;;;5058355;28;20514;-69
2022/04/14 06:14:00;;;;;;;9.20;4.07;;;12.90;79.40;;;;;;5066674;28;20052;-69
2022/04/14 06:16:28;;;;;;;10.85;4.38;;;13.00;79.30;;;;;;5069357;28;20060;-68
2022/04/14 06:18:55;;;;;;;12.40;4.18;;;13.10;79.10;;;;;;5067709;28;20049;-67
2022/04/14 06:21:22;;;;;;;13.80;5.35;;;13.10;79.10;;;;;;5066536;28;20068;-70
2022/04/14 06:23:49;;;;;;;11.75;5.03;;;13.20;80.00;;;;;;5067265;28;20040;-70
2022/04/14 06:26:16;;;;;;;10.73;5.82;;;13.20;80.30;;;;;;5067974;28;20076;-69
2022/04/14 06:28:46;;;;;;;10.27;5.65;;;13.30;80.40;;;;;;5045093;28;20137;-69
2022/04/14 06:31:14;;;;;;;9.57;5.57;;;13.40;79.90;;;;;;5045778;28;20542;-69
2022/04/14 06:33:44;;;;;;;9.93;5.07;;;13.40;79.80;;;;;;5061817;28;20102;-68
2022/04/14 06:36:11;;;;;;;11.63;6.53;;;13.50;79.80;;;;;;5058065;28;20188;-68
2022/04/14 06:38:39;;;;;;;14.18;7.22;;;13.60;80.30;;;;;;5061142;28;20040;-68
2022/04/14 06:41:06;;;;;;;12.32;5.95;;;13.60;80.30;;;;;;5062509;28;20193;-67
2022/04/14 06:43:34;;;;;;;11.70;6.70;;;13.70;80.00;;;;;;5060140;28;20052;-70
2022/04/14 06:46:03;;;;;;;18.40;8.30;;;13.70;79.80;;;;;;5057943;28;20094;-69
2022/04/14 06:48:31;;;;;;;12.77;7.38;;;13.80;80.80;;;;;;5059836;28;20044;-69
2022/04/14 06:51:00;;;;;;;17.55;8.35;;;13.90;80.60;;;;;;5041019;28;20379;-69
2022/04/14 06:53:27;;;;;;;18.08;7.50;;;13.90;80.60;;;;;;5060107;28;20036;-70
2022/04/14 06:55:54;;;;;;;12.50;6.97;;;13.90;80.80;;;;;;5063554;28;20043;-70
2022/04/14 06:58:21;;;;;;;18.75;8.02;;;13.90;80.60;;;;;;5067456;28;20040;-70
2022/04/14 07:00:48;;;;;;;15.98;8.60;;;14.00;80.50;;;;;;5045648;28;20048;-69
2022/04/14 07:03:15;;;;;;;14.75;7.93;;;14.00;80.80;;;;;;5061592;28;20037;-70
2022/04/14 07:05:42;;;;;;;17.98;8.75;;;14.10;81.20;;;;;;5064001;28;20706;-70
2022/04/14 07:08:10;;;;;;;17.08;7.32;;;14.10;81.00;;;;;;5060227;28;20048;-71
2022/04/14 07:10:37;;;;;;;19.30;9.43;;;14.10;80.80;;;;;;5061813;28;20050;-71
2022/04/14 07:13:04;;;;;;;16.88;8.70;;;14.20;81.20;;;;;;5062311;28;20051;-70
2022/04/14 07:15:31;;;;;;;16.65;7.78;;;14.20;80.80;;;;;;5060228;28;20048;-71
2022/04/14 07:18:00;;;;;;;16.70;9.13;;;14.20;80.80;;;;;;5062074;28;20076;-68
2022/04/14 07:20:29;;;;;;;13.23;7.82;;;14.30;80.90;;;;;;5061773;28;20040;-69
2022/04/14 07:22:58;;;;;;;16.33;8.02;;;14.30;81.10;;;;;;5061490;28;20036;-70
2022/04/14 07:25:28;;;;;;;20.38;8.30;;;14.30;81.10;;;;;;5059761;28;20055;-70
2022/04/14 07:27:55;;;;;;;16.98;9.23;;;14.40;81.10;;;;;;5060353;28;20040;-70
2022/04/14 07:30:23;;;;;;;15.73;8.25;;;14.40;81.30;;;;;;5064445;28;20040;-70
2022/04/14 07:32:50;;;;;;;16.52;7.80;;;14.40;80.80;;;;;;5062659;28;20133;-70
2022/04/14 07:35:18;;;;;;;15.35;8.18;;;14.40;80.90;;;;;;5059550;28;20134;-70
2022/04/14 07:37:45;;;;;;;14.38;7.15;;;14.50;80.90;;;;;;5059415;28;20055;-70
2022/04/14 07:40:12;;;;;;;17.70;8.82;;;14.50;80.90;;;;;;5059968;28;20053;-70
2022/04/14 07:42:42;;;;;;;16.85;8.57;;;14.50;81.10;;;;;;5060362;28;20375;-69
2022/04/14 07:45:11;;;;;;;15.98;8.02;;;14.50;80.60;;;;;;5058633;28;20115;-71
2022/04/14 07:47:41;;;;;;;15.88;8.30;;;14.60;80.70;;;;;;5060220;28;20135;-69
2022/04/14 07:50:08;;;;;;;18.48;9.23;;;14.60;80.90;;;;;;5068207;28;20168;-70
2022/04/14 07:52:48;;;;;;;16.10;7.88;;;14.60;80.70;;;;;;5066690;28;20048;-70
2022/04/14 07:55:22;;;;;;;19.67;8.05;;;14.60;80.70;;;;;;5062461;28;20056;-70
2022/04/14 07:57:51;;;;;;;18.23;8.75;;;14.70;80.70;;;;;;5048538;28;20052;-70
2022/04/14 08:00:19;;;;;;;13.55;6.65;;;14.60;80.80;;;;;;5059589;28;20044;-70
2022/04/14 08:02:53;;;;;;;16.75;7.97;;;14.70;80.20;;;;;;5060048;28;20079;-70
2022/04/14 08:05:21;;;;;;;13.77;6.68;;;14.70;80.10;;;;;;5059613;28;20037;-70
2022/04/14 08:07:49;;;;;;;14.65;6.45;;;14.70;80.30;;;;;;5059478;28;20975;-70
2022/04/14 08:10:16;;;;;;;12.70;6.60;;;14.80;79.90;;;;;;5057640;28;20071;-69
2022/04/14 08:12:43;;;;;;;12.57;7.05;;;14.80;79.90;;;;;;5059726;28;20906;-70
2022/04/14 08:15:12;;;;;;;12.63;7.32;;;14.90;80.00;;;;;;5059479;28;20036;-70
2022/04/14 08:17:41;;;;;;;12.87;5.93;;;14.90;80.10;;;;;;5057791;28;20498;-70
2022/04/14 08:20:10;;;;;;;13.95;6.32;;;14.90;79.90;;;;;;5060952;28;20557;-69
2022/04/14 08:22:48;;;;;;;12.32;6.13;;;15.00;79.90;;;;;;5058978;28;20044;-70
2022/04/14 08:25:16;;;;;;;14.57;6.15;;;15.00;79.60;;;;;;5063167;28;20072;-69
2022/04/14 08:27:43;;;;;;;11.25;6.28;;;15.10;79.70;;;;;;5064559;28;20051;-68
2022/04/14 08:30:12;;;;;;;11.50;5.68;;;15.10;79.50;;;;;;5063962;28;20039;-70
2022/04/14 08:32:40;;;;;;;11.70;6.07;;;15.20;79.50;;;;;;5061829;28;20045;-71
2022/04/14 08:35:08;;;;;;;11.73;5.93;;;15.20;79.30;;;;;;5066469;28;20048;-70
2022/04/14 08:37:35;;;;;;;14.48;6.75;;;15.30;79.20;;;;;;5064742;28;20079;-71
2022/04/14 08:40:02;;;;;;;11.25;5.53;;;15.40;79.20;;;;;;5064714;28;20045;-70
2022/04/14 08:42:35;;;;;;;10.15;5.40;;;15.50;79.00;;;;;;5053683;28;20610;-70
2022/04/14 08:45:05;;;;;;;12.45;5.43;;;15.50;78.50;;;;;;5058620;28;20120;-70
2022/04/14 08:47:36;;;;;;;11.75;5.30;;;15.60;79.00;;;;;;5057609;28;20040;-70
2022/04/14 08:50:04;;;;;;;11.82;5.97;;;15.70;78.40;;;;;;5059783;28;20063;-70
2022/04/14 08:52:33;;;;;;;12.60;5.78;;;15.90;78.50;;;;;;5061811;28;20045;-70
2022/04/14 08:55:01;;;;;;;15.13;6.07;;;16.00;77.90;;;;;;5062744;28;20040;-70
2022/04/14 08:57:28;;;;;;;14.10;5.60;;;16.20;78.20;;;;;;5065117;28;20220;-70
2022/04/14 08:59:57;;;;;;;9.98;5.07;;;16.40;77.70;;;;;;5062698;28;20052;-69
2022/04/14 09:02:25;;;;;;;9.23;4.43;;;16.60;77.00;;;;;;5062193;28;20090;-70
2022/04/14 09:04:55;;;;;;;12.75;5.55;;;16.70;77.60;;;;;;5063532;28;20478;-69
2022/04/14 09:07:22;;;;;;;16.88;6.10;;;16.90;77.30;;;;;;5063805;28;20045;-69
2022/04/14 09:09:49;;;;;;;10.77;5.63;;;17.10;76.00;;;;;;5047411;28;20496;-70
2022/04/14 09:12:17;;;;;;;9.55;4.78;;;17.20;76.00;;;;;;5044265;28;20062;-70
2022/04/14 09:14:44;;;;;;;10.60;5.55;;;17.30;74.80;;;;;;5061813;28;20048;-70
2022/04/14 09:17:12;;;;;;;12.32;5.05;;;17.40;73.90;;;;;;5062939;28;21141;-70
2022/04/14 09:19:39;;;;;;;14.43;5.50;;;17.30;73.90;;;;;;5068341;28;20036;-70
2022/04/14 09:22:10;;;;;;;12.77;5.22;;;17.30;72.60;;;;;;5067297;28;20049;-70
2022/04/14 09:24:44;;;;;;;10.70;4.28;;;17.30;73.20;;;;;;5068424;28;20047;-70
2022/04/14 09:27:25;;;;;;;11.23;5.20;;;17.20;73.10;;;;;;5065856;28;20423;-69
2022/04/14 09:29:53;;;;;;;10.98;4.95;;;17.20;73.00;;;;;;5064266;28;20040;-69
2022/04/14 09:32:35;;;;;;;8.57;4.65;;;17.20;72.50;;;;;;5053656;28;20048;-70
2022/04/14 09:35:05;;;;;;;13.25;5.47;;;17.10;72.60;;;;;;5061918;28;20047;-70
2022/04/14 09:37:34;;;;;;;;;;;17.10;72.10;;;;;;5063477;28;20387;-70
2022/04/14 09:40:02;;;;;;;9.50;4.75;;;17.10;72.00;;;;;;5061641;28;19924;-70
2022/04/14 09:42:31;;;;;;;8.68;4.78;;;17.00;72.10;;;;;;5061689;28;20049;-69
2022/04/14 09:45:19;;;;;;;11.80;5.40;;;16.90;72.30;;;;;;5062255;28;20144;-70
2022/04/14 09:47:47;;;;;;;13.55;5.45;;;16.90;72.40;;;;;;5062330;28;20135;-69
2022/04/14 09:50:29;;;;;;;13.95;5.97;;;16.90;73.20;;;;;;5069188;28;20048;-69
2022/04/14 09:53:03;;;;;;;16.42;6.60;;;16.80;73.70;;;;;;5068046;28;20041;-70
2022/04/14 09:55:30;;;;;;;13.00;6.55;;;16.80;74.20;;;;;;5051447;28;20052;-70
2022/04/14 09:58:13;;;;;;;14.85;6.90;;;16.80;75.20;;;;;;5068961;28;20079;-68
2022/04/14 10:00:41;;;;;;;12.85;6.40;;;16.70;76.00;;;;;;5067737;28;20037;-70
2022/04/14 10:03:13;;;;;;;17.50;7.65;;;16.70;76.50;;;;;;5064488;28;20059;-69
2022/04/14 10:05:40;;;;;;;13.52;7.07;;;16.70;76.60;;;;;;5060839;28;20036;-70
2022/04/14 10:08:09;;;;;;;15.68;6.95;;;16.70;77.10;;;;;;5060422;28;20072;-70
2022/04/14 10:10:40;;;;;;;14.07;7.45;;;16.60;77.10;;;;;;5061753;28;20052;-70
2022/04/14 10:13:09;;;;;;;14.13;7.05;;;16.60;77.10;;;;;;5062476;28;23984;-70
2022/04/14 10:15:38;;;;;;;11.88;6.88;;;16.60;77.20;;;;;;5061770;28;20035;-70
2022/04/14 10:18:07;;;;;;;16.30;6.63;;;16.60;77.00;;;;;;5061522;28;20044;-70
2022/04/14 10:20:35;;;;;;;11.55;6.28;;;16.60;76.40;;;;;;5061585;28;20047;-70
2022/04/14 10:23:03;;;;;;;13.45;6.20;;;16.60;76.00;;;;;;5060405;28;20468;-69
2022/04/14 10:25:32;;;;;;;13.93;6.00;;;16.50;76.00;;;;;;5057108;28;21883;-69
2022/04/14 10:28:00;;;;;;;10.55;5.45;;;16.50;76.10;;;;;;5066051;28;20040;-69
2022/04/14 10:30:28;;;;;;;11.32;4.70;;;16.50;76.20;;;;;;5069395;28;20033;-70
2022/04/14 10:32:57;;;;;;;11.02;5.55;;;16.40;76.00;;;;;;5068954;28;20604;-71
2022/04/14 10:35:25;;;;;;;13.02;5.25;;;16.50;76.00;;;;;;5070308;28;20098;-72
2022/04/14 10:38:01;;;;;;;12.05;5.10;;;16.40;75.90;;;;;;5067083;28;20048;-69
2022/04/14 10:40:31;;;;;;;12.00;5.00;;;16.50;76.00;;;;;;5066871;28;20119;-69
2022/04/14 10:42:59;;;;;;;6.78;3.28;;;16.50;76.20;;;;;;5065224;28;20052;-70
2022/04/14 10:45:26;;;;;;;7.53;3.13;;;16.50;76.20;;;;;;5059657;28;20052;-69
2022/04/14 10:48:04;;;;;;;9.20;3.00;;;16.50;76.20;;;;;;5061090;28;20115;-71
2022/04/14 10:50:33;;;;;;;7.72;2.90;;;16.60;76.20;;;;;;5063364;28;20075;-69
2022/04/14 10:53:09;;;;;;;9.70;3.40;;;16.60;76.20;;;;;;5062453;28;20041;-70
2022/04/14 10:55:43;;;;;;;9.82;2.92;;;16.60;76.00;;;;;;5061466;28;20044;-69
2022/04/14 10:58:46;;;;;;;7.03;2.80;;;16.70;75.90;;;;;;5063149;28;20048;-70
2022/04/14 11:01:14;;;;;;;9.88;3.10;;;16.80;75.70;;;;;;5039396;28;20447;-70
2022/04/14 11:03:49;;;;;;;7.70;2.63;;;16.90;75.20;;;;;;5062306;28;20037;-71
2022/04/14 11:06:51;;;;;;;10.05;2.50;;;17.00;75.10;;;;;;5063185;28;20040;-71
2022/04/14 11:09:50;;;;;;;9.57;2.90;;;17.10;75.20;;;;;;5060900;28;20075;-70
2022/04/14 11:12:20;;;;;;;6.20;2.22;;;17.20;74.70;;;;;;5062736;28;20633;-70
2022/04/14 11:14:50;;;;;;;6.55;1.92;;;17.30;73.40;;;;;;5059695;28;20056;-70
2022/04/14 11:17:58;;;;;;;4.80;1.70;;;17.40;72.90;;;;;;5060621;28;20039;-70
2022/04/14 11:20:56;;;;;;;5.05;1.90;;;17.40;73.10;;;;;;5062617;28;20040;-69
2022/04/14 11:23:29;;;;;;;7.18;1.98;;;17.60;72.10;;;;;;5062522;28;20490;-70
2022/04/14 11:26:11;;;;;;;5.03;1.55;;;17.60;71.50;;;;;;5059485;28;20044;-69
2022/04/14 11:28:43;;;;;;;4.68;1.63;;;17.60;71.60;;;;;;5059005;28;20059;-70
2022/04/14 11:31:27;;;;;;;4.68;1.40;;;17.60;71.70;;;;;;5062665;28;20043;-68
2022/04/14 11:33:57;;;;;;;3.72;1.23;;;17.60;71.50;;;;;;5061376;28;20056;-69
2022/04/14 11:36:28;;;;;;;3.78;1.30;;;17.60;71.70;;;;;;5060113;28;20048;-69
2022/04/14 11:38:58;;;;;;;3.70;1.13;;;17.60;71.70;;;;;;5059019;28;20497;-69
2022/04/14 11:41:37;;;;;;;3.40;1.25;;;17.60;71.60;;;;;;5060335;28;20076;-70
2022/04/14 11:44:07;;;;;;;3.30;1.10;;;17.60;71.40;;;;;;5057778;28;20066;-69
2022/04/14 11:46:37;;;;;;;2.65;1.23;;;17.60;71.10;;;;;;5054733;28;20045;-69
2022/04/14 11:49:05;;;;;;;5.25;1.40;;;17.60;70.80;;;;;;5065654;28;20585;-70
2022/04/14 11:51:32;;;;;;;2.78;0.95;;;17.60;70.90;;;;;;5054407;28;20174;-70
2022/04/14 11:53:59;;;;;;;3.53;1.10;;;17.70;71.00;;;;;;5062398;28;20047;-69
2022/04/14 11:56:26;;;;;;;4.78;1.35;;;17.70;70.90;;;;;;5065755;28;20207;-69
2022/04/14 11:58:54;;;;;;;4.03;1.33;;;17.70;71.10;;;;;;5064339;28;20044;-69
2022/04/14 12:01:22;;;;;;;4.38;1.58;;;17.80;71.00;;;;;;5060185;28;20444;-70
2022/04/14 12:03:49;;;;;;;5.18;1.60;;;17.80;71.20;;;;;;5055243;28;20432;-71
2022/04/14 12:06:18;;;;;;;7.00;1.50;;;17.80;71.20;;;;;;5041583;28;20466;-69
2022/04/14 12:08:55;;;;;;;3.45;1.48;;;17.90;71.10;;;;;;5062100;28;20051;-70
2022/04/14 12:11:24;;;;;;;5.15;1.08;;;17.90;71.00;;;;;;5059246;28;21760;-69
2022/04/14 12:13:51;;;;;;;5.45;1.30;;;17.90;71.00;;;;;;5058008;28;20066;-70
2022/04/14 12:16:18;;;;;;;5.85;1.33;;;18.00;71.10;;;;;;5059703;28;20043;-69
2022/04/14 12:18:55;;;;;;;2.70;1.30;;;18.10;71.00;;;;;;5059518;28;23619;-69
2022/04/14 12:21:24;;;;;;;2.75;1.20;;;18.10;70.90;;;;;;5058401;28;20170;-69
2022/04/14 12:23:52;;;;;;;3.92;1.17;;;18.10;70.80;;;;;;5057008;28;20053;-69
2022/04/14 12:26:21;;;;;;;2.38;0.95;;;18.10;70.40;;;;;;5056799;28;20520;-69
2022/04/14 12:28:48;;;;;;;3.88;1.20;;;18.10;70.40;;;;;;5054431;28;20138;-68
2022/04/14 12:31:17;;;;;;;6.40;1.17;;;18.10;70.20;;;;;;5055793;28;20060;-69
2022/04/14 12:34:01;;;;;;;4.00;1.45;;;18.10;70.10;;;;;;5056290;28;20050;-68
2022/04/14 12:36:38;;;;;;;2.42;1.30;;;18.00;70.10;;;;;;5067303;28;20443;-69
2022/04/14 12:39:06;;;;;;;3.50;1.85;;;18.10;70.30;;;;;;5065811;28;20487;-70
2022/04/14 12:41:35;;;;;;;3.13;1.40;;;18.10;70.20;;;;;;5068767;28;20101;-70
2022/04/14 12:44:02;;;;;;;3.85;1.40;;;18.10;70.00;;;;;;5069277;28;20044;-69
2022/04/14 12:46:35;;;;;;;2.50;1.08;;;18.10;70.00;;;;;;5066992;28;20049;-69
2022/04/14 12:49:10;;;;;;;6.57;1.38;;;18.10;69.90;;;;;;5067857;28;20045;-70
2022/04/14 12:51:40;;;;;;;3.50;1.00;;;18.10;69.90;;;;;;5062833;28;20051;-70
2022/04/14 12:54:07;;;;;;;3.40;1.10;;;18.10;70.00;;;;;;5068394;28;20052;-69
2022/04/14 12:56:37;;;;;;;2.65;1.38;;;18.10;70.30;;;;;;5066527;28;20041;-70